Time;durP1;ratioP1;P1;durP2;ratioP2;P2;SDS_P1;SDS_P2;PMS_P1;PMS_P2;Temp;Humidity;BMP_temperature;BMP_pressure;BME280_temperature;BME280_humidity;BME280_pressure;Samples;Min_cycle;Max_cycle;Signal;HPM_P1;HPM_P2
2023/07/11 00:00:55;;;;;;;;;16.00;16.00;;;;;18.26;60.05;100098.69;5032380;28;8870;-57
2023/07/11 00:03:22;;;;;;;;;12.60;12.60;;;;;18.24;60.26;100097.16;5033419;28;8854;-59
2023/07/11 00:05:52;;;;;;;;;14.20;14.00;;;;;18.23;60.62;100096.31;5020093;28;8943;-59
2023/07/11 00:08:20;;;;;;;;;12.60;12.00;;;;;18.23;60.28;100101.69;5013706;28;8844;-57
2023/07/11 00:10:48;;;;;;;;;10.80;10.80;;;;;18.24;60.15;100091.78;5030682;28;8821;-58
2023/07/11 00:13:15;;;;;;;;;12.40;10.80;;;;;18.22;60.49;100091.94;5033185;28;8812;-58
2023/07/11 00:15:43;;;;;;;;;12.00;11.60;;;;;18.23;60.33;100084.69;5018938;28;8811;-58
2023/07/11 00:18:12;;;;;;;;;11.80;10.40;;;;;18.21;60.21;100081.34;5029070;28;8823;-60
2023/07/11 00:20:39;;;;;;;;;13.40;12.20;;;;;18.19;60.87;100076.09;5032168;28;8836;-60
2023/07/11 00:23:07;;;;;;;;;15.00;14.20;;;;;18.18;60.64;100076.25;5032991;28;8831;-59
2023/07/11 00:25:35;;;;;;;;;15.80;12.80;;;;;18.16;60.63;100078.28;5033067;28;8966;-59
2023/07/11 00:28:03;;;;;;;;;11.20;10.80;;;;;18.15;60.63;100066.66;5029614;28;8830;-59
2023/07/11 00:30:31;;;;;;;;;12.80;12.80;;;;;18.15;60.33;100066.66;5031223;28;8828;-60
2023/07/11 00:32:58;;;;;;;;;16.40;15.00;;;;;18.13;60.25;100063.28;5019032;28;8853;-60
2023/07/11 00:35:26;;;;;;;;;13.00;12.00;;;;;18.14;60.67;100070.34;5013339;28;8838;-59
2023/07/11 00:37:54;;;;;;;;;18.25;18.00;;;;;18.12;60.61;100072.38;5013705;28;8818;-60
2023/07/11 00:40:22;;;;;;;;;18.50;15.50;;;;;18.13;60.38;100063.28;5014378;28;8815;-60
2023/07/11 00:42:50;;;;;;;;;13.40;11.40;;;;;18.11;60.33;100049.13;5014669;28;8921;-60
2023/07/11 00:45:17;;;;;;;;;15.80;15.80;;;;;18.12;60.96;100050.81;5013687;28;9546;-60
2023/07/11 00:47:45;;;;;;;;;14.60;13.00;;;;;18.12;60.19;100050.81;5013316;28;8852;-59
2023/07/11 00:50:13;;;;;;;;;15.60;14.20;;;;;18.10;60.22;100043.91;5026626;28;8832;-60
2023/07/11 00:52:40;;;;;;;;;14.00;13.00;;;;;18.08;60.83;100038.66;5032478;28;8844;-58
2023/07/11 00:55:08;;;;;;;;;16.00;15.00;;;;;18.07;60.37;100046.94;5019724;28;8842;-58
2023/07/11 00:57:36;;;;;;;;;15.80;14.60;;;;;18.04;60.52;100042.72;5012363;28;8852;-59
2023/07/11 01:00:04;;;;;;;;;13.40;12.60;;;;;18.03;60.57;100034.81;5012684;28;8833;-59
2023/07/11 01:02:32;;;;;;;;;16.00;15.75;;;;;18.01;60.98;100035.00;5012598;28;8968;-59
2023/07/11 01:05:01;;;;;;;;;13.80;13.80;;;;;17.99;60.47;100030.78;5012786;28;8923;-60
2023/07/11 01:07:28;;;;;;;;;14.60;14.60;;;;;17.96;60.62;100028.38;5012661;28;9504;-59
2023/07/11 01:09:56;;;;;;;;;13.00;12.75;;;;;17.94;60.75;100020.50;5025086;28;8932;-58
2023/07/11 01:12:24;;;;;;;;;14.25;13.00;;;;;17.92;60.71;100022.50;5029368;28;8820;-59
2023/07/11 01:14:52;;;;;;;;;13.40;12.60;;;;;17.91;60.94;100020.81;5011977;28;9353;-60
2023/07/11 01:17:20;;;;;;;;;13.40;13.40;;;;;17.90;60.99;100021.81;5024127;28;8832;-59
2023/07/11 01:19:48;;;;;;;;;12.25;12.25;;;;;17.88;61.19;100028.38;5031914;28;8850;-60
2023/07/11 01:22:15;;;;;;;;;12.00;11.50;;;;;17.85;60.83;100021.47;5031503;28;8851;-60
2023/07/11 01:24:43;;;;;;;;;13.80;13.60;;;;;17.84;60.92;100027.03;5031844;28;8839;-58
2023/07/11 01:27:10;;;;;;;;;12.00;10.00;;;;;17.83;61.13;100023.50;5032080;28;8847;-59
2023/07/11 01:29:41;;;;;;;;;15.00;14.60;;;;;17.84;60.65;100014.41;5031936;28;8820;-57
2023/07/11 01:32:11;;;;;;;;;14.60;13.20;;;;;17.85;60.79;100016.06;5031736;28;8859;-58
2023/07/11 01:34:39;;;;;;;;;15.60;12.40;;;;;17.87;61.25;100014.09;5031471;28;8828;-57
2023/07/11 01:37:07;;;;;;;;;12.60;12.60;;;;;17.88;61.27;100010.38;5031711;28;8874;-57
2023/07/11 01:39:35;;;;;;;;;10.20;9.80;;;;;17.90;60.85;100008.34;5031508;28;8839;-60
2023/07/11 01:42:02;;;;;;;;;10.80;10.00;;;;;17.93;60.80;100005.31;5032043;28;8824;-58
2023/07/11 01:44:30;;;;;;;;;9.60;9.60;;;;;17.94;61.19;100003.47;5031746;28;8843;-59
2023/07/11 01:46:58;;;;;;;;;16.00;12.00;;;;;17.95;60.92;100006.00;5031727;28;8865;-58
2023/07/11 01:49:25;;;;;;;;;13.50;12.50;;;;;17.96;60.74;100004.13;4981624;28;1445683;-59
2023/07/11 01:51:53;;;;;;;;;13.00;12.60;;;;;17.96;60.78;100007.69;5032770;28;8840;-60
2023/07/11 01:54:21;;;;;;;;;12.20;12.20;;;;;17.95;60.91;100005.16;5014514;28;8823;-58
2023/07/11 01:56:49;;;;;;;;;14.80;14.80;;;;;17.93;60.71;100008.00;5013516;28;8853;-60
2023/07/11 01:59:16;;;;;;;;;15.00;14.20;;;;;17.93;60.87;100007.19;5029746;28;8966;-58
2023/07/11 02:01:44;;;;;;;;;15.20;14.40;;;;;17.89;60.79;100006.66;5035001;28;8871;-59
2023/07/11 02:04:12;;;;;;;;;13.80;13.80;;;;;17.84;61.42;100000.91;5035872;28;9505;-58
2023/07/11 02:06:40;;;;;;;;;13.60;12.60;;;;;17.81;60.93;100001.28;5035812;28;8816;-59
2023/07/11 02:09:07;;;;;;;;;10.20;8.60;;;;;17.79;61.39;100003.28;5033836;28;8836;-59
2023/07/11 02:11:35;;;;;;;;;15.00;13.00;;;;;17.74;61.53;99997.56;5021873;28;8865;-59
2023/07/11 02:14:03;;;;;;;;;15.80;14.20;;;;;17.73;61.20;100005.78;5016923;28;8830;-59
2023/07/11 02:16:31;;;;;;;;;12.20;10.80;;;;;17.70;61.62;99998.88;5015557;28;8956;-60
2023/07/11 02:18:59;;;;;;;;;13.80;13.80;;;;;17.68;61.70;99994.69;5021753;28;8934;-58
2023/07/11 02:21:27;;;;;;;;;10.00;8.80;;;;;17.66;61.61;99999.38;5035441;28;8873;-60
2023/07/11 02:23:54;;;;;;;;;9.00;9.00;;;;;17.62;61.80;99990.78;5033324;28;8960;-58
2023/07/11 02:26:22;;;;;;;;;12.80;12.80;;;;;17.60;62.18;99990.13;5035431;28;8877;-58
2023/07/11 02:28:50;;;;;;;;;15.20;14.20;;;;;17.58;61.68;99983.19;5034765;28;8828;-57
2023/07/11 02:31:17;;;;;;;;;13.40;13.40;;;;;17.56;61.67;99983.38;5035346;28;8832;-58
2023/07/11 02:33:45;;;;;;;;;13.75;12.50;;;;;17.55;61.71;99980.84;5034500;28;8824;-58
2023/07/11 02:36:13;;;;;;;;;13.80;13.80;;;;;17.53;62.07;99983.69;5034620;28;8828;-57
2023/07/11 02:38:41;;;;;;;;;13.00;12.40;;;;;17.49;61.83;99974.28;5033437;28;8865;-57
2023/07/11 02:41:08;;;;;;;;;13.80;12.60;;;;;17.47;62.11;99976.28;5025447;28;9639;-58
2023/07/11 02:43:36;;;;;;;;;12.50;12.50;;;;;17.45;62.07;99977.47;5016558;28;8850;-57
2023/07/11 02:46:04;;;;;;;;;13.00;10.00;;;;;17.44;62.23;99973.91;5015369;28;8908;-58
2023/07/11 02:48:32;;;;;;;;;12.75;12.50;;;;;17.41;62.02;99971.56;5015374;28;8848;-57
2023/07/11 02:51:00;;;;;;;;;11.25;11.25;;;;;17.38;61.99;99969.19;5015445;28;8822;-59
2023/07/11 02:53:27;;;;;;;;;13.00;13.00;;;;;17.37;62.25;99972.88;5015526;28;8838;-58
2023/07/11 02:55:56;;;;;;;;;12.50;12.50;;;;;17.35;62.61;99966.81;5030879;28;8819;-58
2023/07/11 02:58:24;;;;;;;;;16.00;13.75;;;;;17.34;62.59;99961.56;5034705;28;9558;-57
2023/07/11 03:00:52;;;;;;;;;11.20;10.00;;;;;17.32;62.15;99956.34;5034574;28;8828;-58
2023/07/11 03:03:19;;;;;;;;;13.00;13.00;;;;;17.31;62.43;99957.34;5034917;28;9537;-59
2023/07/11 03:05:47;;;;;;;;;14.25;13.50;;;;;17.29;62.60;99948.63;5032183;28;8856;-57
2023/07/11 03:08:15;;;;;;;;;10.80;10.80;;;;;17.26;62.64;99948.94;5034190;28;8820;-58
2023/07/11 03:10:43;;;;;;;;;12.50;11.25;;;;;17.24;62.68;99956.31;5031192;28;8826;-58
2023/07/11 03:13:10;;;;;;;;;11.40;11.00;;;;;17.22;62.53;99947.59;5034419;28;8851;-58
2023/07/11 03:15:38;;;;;;;;;12.75;12.00;;;;;17.19;62.95;99953.31;5032900;28;8859;-58
2023/07/11 03:18:06;;;;;;;;;11.75;11.75;;;;;17.18;62.86;99953.47;5034013;28;8925;-57
2023/07/11 03:20:34;;;;;;;;;12.75;12.75;;;;;17.16;63.26;99950.91;5021289;28;8832;-60
2023/07/11 03:23:02;;;;;;;;;12.00;11.50;;;;;17.16;62.93;99942.03;5034239;28;8820;-58
2023/07/11 03:25:30;;;;;;;;;12.00;12.00;;;;;17.16;62.63;99940.16;5034296;28;8854;-60
2023/07/11 03:27:57;;;;;;;;;13.50;12.75;;;;;17.16;62.88;99932.06;5034288;28;8859;-59
2023/07/11 03:30:25;;;;;;;;;10.40;10.20;;;;;17.17;62.84;99925.69;5034275;28;8970;-58
2023/07/11 03:32:53;;;;;;;;;15.25;13.50;;;;;17.17;63.03;99917.59;5034749;28;8835;-58
2023/07/11 03:35:21;;;;;;;;;15.00;14.00;;;;;17.19;62.83;99922.84;5034458;28;9504;-60
2023/07/11 03:37:49;;;;;;;;;10.00;10.00;;;;;17.19;62.47;99923.69;5033945;28;8816;-59
2023/07/11 03:40:17;;;;;;;;;15.25;13.00;;;;;17.20;62.08;99919.13;5034235;28;8846;-60
2023/07/11 03:42:45;;;;;;;;;12.75;12.75;;;;;17.19;62.48;99921.00;5034250;28;8832;-59
2023/07/11 03:45:13;;;;;;;;;13.25;12.75;;;;;17.19;62.93;99914.75;5033576;28;8824;-58
2023/07/11 03:47:41;;;;;;;;;12.25;12.00;;;;;17.20;62.76;99914.59;5034059;28;8828;-59
2023/07/11 03:50:08;;;;;;;;;14.50;13.50;;;;;17.21;62.56;99915.44;5033791;28;8901;-59
2023/07/11 03:52:36;;;;;;;;;12.50;12.50;;;;;17.23;62.73;99916.97;5033828;28;8862;-60
2023/07/11 03:55:04;;;;;;;;;12.00;11.75;;;;;17.26;62.51;99918.47;5034158;28;8893;-58
2023/07/11 03:57:32;;;;;;;;;14.00;12.75;;;;;17.27;62.25;99915.63;5033477;28;8820;-60
2023/07/11 03:59:59;;;;;;;;;11.50;11.00;;;;;17.30;62.29;99915.28;5026477;28;8826;-59
2023/07/11 04:02:27;;;;;;;;;15.50;15.50;;;;;17.33;62.64;99906.06;5013580;28;8845;-59
2023/07/11 04:04:55;;;;;;;;;11.50;11.00;;;;;17.36;62.26;99903.91;5014394;28;8926;-59
2023/07/11 04:07:23;;;;;;;;;13.25;13.00;;;;;17.39;62.05;99906.25;5013673;28;8837;-59
2023/07/11 04:09:51;;;;;;;;;16.00;16.00;;;;;17.42;62.43;99902.38;5024263;28;8842;-58
2023/07/11 04:12:18;;;;;;;;;16.50;14.50;;;;;17.45;62.07;99900.22;5033599;28;8836;-58
2023/07/11 04:14:46;;;;;;;;;15.50;15.25;;;;;17.50;62.02;99900.56;5032812;28;8836;-59
2023/07/11 04:17:13;;;;;;;;;8.50;8.50;;;;;17.55;61.94;99900.06;5033259;28;9490;-59
2023/07/11 04:19:41;;;;;;;;;12.50;12.50;;;;;17.60;61.81;99892.31;5031782;28;8828;-57
2023/07/11 04:22:09;;;;;;;;;16.00;15.50;;;;;17.65;61.84;99889.94;5031478;28;8819;-58
2023/07/11 04:24:37;;;;;;;;;15.00;13.00;;;;;17.70;61.60;99882.22;5031414;28;8840;-60
2023/07/11 04:27:04;;;;;;;;;15.25;13.50;;;;;17.77;61.59;99883.22;5033315;28;8828;-59
2023/07/11 04:29:32;;;;;;;;;14.00;13.75;;;;;17.84;61.24;99882.38;5031495;28;9453;-58
2023/07/11 04:32:00;;;;;;;;;12.50;12.00;;;;;17.94;61.35;99877.66;5014567;28;8810;-58
2023/07/11 04:34:28;;;;;;;;;9.40;8.60;;;;;18.02;61.38;99876.81;5020509;28;9530;-60
2023/07/11 04:36:55;;;;;;;;;15.00;13.00;;;;;18.12;61.23;99872.91;5032643;28;8848;-59
2023/07/11 04:39:23;;;;;;;;;12.80;12.80;;;;;18.23;60.85;99875.22;5030936;28;8820;-60
2023/07/11 04:41:51;;;;;;;;;13.20;13.20;;;;;18.31;60.76;99867.19;5032576;28;8885;-60
2023/07/11 04:44:18;;;;;;;;;13.40;12.00;;;;;18.42;60.66;99871.34;5026237;28;8854;-60
2023/07/11 04:46:46;;;;;;;;;15.00;15.00;;;;;18.52;60.46;99869.31;5013031;28;8849;-60
2023/07/11 04:49:14;;;;;;;;;13.40;13.00;;;;;18.60;59.72;99856.59;5012875;28;8845;-60
2023/07/11 04:51:42;;;;;;;;;13.60;12.20;;;;;18.70;60.05;99868.06;5012789;28;8837;-58
2023/07/11 04:54:10;;;;;;;;;18.00;15.00;;;;;18.83;59.74;99862.91;5013636;28;8843;-57
2023/07/11 04:56:37;;;;;;;;;11.80;11.60;;;;;18.95;59.55;99860.66;5012463;28;8841;-60
2023/07/11 04:59:05;;;;;;;;;13.00;13.00;;;;;19.07;58.95;99854.69;5012822;28;8826;-58
2023/07/11 05:01:33;;;;;;;;;11.40;10.20;;;;;19.21;59.02;99862.03;5012750;28;8948;-58
2023/07/11 05:04:01;;;;;;;;;11.40;10.60;;;;;19.36;59.06;99845.91;5013677;28;8830;-60
2023/07/11 05:06:28;;;;;;;;;12.00;12.00;;;;;19.50;58.69;99840.56;5013601;28;8927;-60
2023/07/11 05:08:56;;;;;;;;;14.40;12.20;;;;;19.64;58.64;99847.06;5027792;28;8841;-59
2023/07/11 05:11:24;;;;;;;;;14.20;14.20;;;;;19.74;57.95;99843.09;5032773;28;8847;-58
2023/07/11 05:13:52;;;;;;;;;17.20;16.00;;;;;19.85;58.50;99831.81;5032325;28;8835;-59
2023/07/11 05:16:20;;;;;;;;;11.20;11.20;;;;;19.99;58.02;99840.97;5031798;28;8820;-60
2023/07/11 05:18:48;;;;;;;;;14.20;13.00;;;;;20.14;57.97;99842.72;5020170;28;8874;-59
2023/07/11 05:21:15;;;;;;;;;10.60;10.00;;;;;20.27;57.43;99837.50;5032472;28;8946;-60
2023/07/11 05:23:44;;;;;;;;;9.20;8.00;;;;;20.38;57.40;99838.88;5031796;28;8820;-60
2023/07/11 05:26:12;;;;;;;;;10.80;10.40;;;;;20.51;57.00;99831.81;5032361;28;8842;-60
2023/07/11 05:28:39;;;;;;;;;12.00;11.00;;;;;20.62;57.12;99830.50;5032530;28;8836;-60
2023/07/11 05:31:08;;;;;;;;;11.00;11.00;;;;;20.75;57.19;99826.06;5032022;28;8824;-60
2023/07/11 05:33:35;;;;;;;;;11.00;11.00;;;;;20.92;56.95;99824.03;5032202;28;9493;-60
2023/07/11 05:36:13;;;;;;;;;10.00;10.00;;;;;21.09;56.21;99821.72;5035221;28;8824;-62
2023/07/11 05:38:40;;;;;;;;;11.80;9.80;;;;;21.27;56.34;99819.41;5044063;28;8994;-60
2023/07/11 05:41:08;;;;;;;;;11.00;11.00;;;;;21.43;55.80;99810.19;5034373;28;8928;-60
2023/07/11 05:43:36;;;;;;;;;8.40;7.60;;;;;21.57;55.23;99814.69;5035095;28;8858;-59
2023/07/11 05:46:04;;;;;;;;;5.80;5.80;;;;;21.72;55.02;99807.34;5035220;28;8838;-60
2023/07/11 05:48:32;;;;;;;;;7.00;7.00;;;;;21.85;54.96;99802.88;5035474;28;8851;-59
2023/07/11 05:51:00;;;;;;;;;6.80;6.60;;;;;21.97;54.56;99798.59;5035480;28;9541;-60
2023/07/11 05:53:28;;;;;;;;;7.00;7.00;;;;;22.12;54.66;99801.19;5035656;28;8843;-58
2023/07/11 05:55:56;;;;;;;;;4.60;4.40;;;;;22.28;54.38;99800.84;5035739;28;9592;-60
2023/07/11 05:58:24;;;;;;;;;10.20;8.80;;;;;22.41;54.69;99799.09;5035229;28;8843;-60
2023/07/11 06:00:52;;;;;;;;;5.00;5.00;;;;;22.52;54.01;99787.66;5034620;28;8832;-59
2023/07/11 06:03:20;;;;;;;;;8.40;8.20;;;;;22.63;54.20;99783.53;5034278;28;8839;-59
2023/07/11 06:05:48;;;;;;;;;6.00;5.60;;;;;22.77;53.73;99790.69;5015045;28;8834;-58
2023/07/11 06:08:15;;;;;;;;;6.00;6.00;;;;;22.87;53.85;99780.28;5023172;28;8857;-60
2023/07/11 06:10:43;;;;;;;;;6.00;6.00;;;;;22.98;53.60;99774.25;5017041;28;8845;-60
2023/07/11 06:13:11;;;;;;;;;6.80;6.80;;;;;23.11;53.35;99768.84;5014888;28;8858;-60
2023/07/11 06:15:40;;;;;;;;;7.60;7.60;;;;;23.22;53.19;99771.00;5015006;28;8851;-60
2023/07/11 06:18:08;;;;;;;;;11.80;6.80;;;;;23.34;53.57;99767.44;5014625;28;8960;-58
2023/07/11 06:20:36;;;;;;;;;9.40;9.00;;;;;23.47;53.15;99769.34;5017923;28;8840;-58
2023/07/11 06:23:04;;;;;;;;;8.60;8.60;;;;;23.58;52.65;99766.00;5034543;28;8827;-58
2023/07/11 06:25:32;;;;;;;;;8.00;7.60;;;;;23.69;53.03;99765.38;5033558;28;8856;-58
2023/07/11 06:27:59;;;;;;;;;8.40;8.00;;;;;23.79;52.41;99763.03;5032250;28;8962;-58
2023/07/11 06:30:27;;;;;;;;;9.00;9.00;;;;;23.89;52.61;99763.50;5033420;28;8844;-59
2023/07/11 06:32:55;;;;;;;;;2.40;2.00;;;;;23.98;52.58;99764.94;5033581;28;8854;-60
2023/07/11 06:35:23;;;;;;;;;5.20;5.20;;;;;24.05;52.71;99758.44;5032921;28;9553;-60
2023/07/11 06:37:51;;;;;;;;;7.80;7.80;;;;;24.14;51.94;99761.78;5018203;28;8830;-60
2023/07/11 06:40:18;;;;;;;;;6.20;6.20;;;;;24.23;52.24;99761.34;5015835;28;8845;-58
2023/07/11 06:42:46;;;;;;;;;6.80;6.60;;;;;24.34;52.00;99757.13;5014696;28;8919;-58
2023/07/11 06:45:14;;;;;;;;;5.40;5.40;;;;;24.43;51.99;99759.38;5013926;28;8856;-60
2023/07/11 06:47:42;;;;;;;;;8.60;7.20;;;;;24.52;51.85;99760.81;5013777;28;8830;-58
2023/07/11 06:50:10;;;;;;;;;8.60;7.20;;;;;24.63;51.41;99754.72;5014222;28;8834;-59
2023/07/11 06:52:39;;;;;;;;;6.20;6.20;;;;;24.73;51.24;99754.28;5014548;28;8834;-60
2023/07/11 06:55:07;;;;;;;;;6.80;6.00;;;;;24.83;51.31;99749.19;5014789;28;8881;-58
2023/07/11 06:57:35;;;;;;;;;7.40;7.00;;;;;24.92;50.97;99737.81;5015212;28;8853;-61
2023/07/11 07:00:05;;;;;;;;;9.60;7.00;;;;;25.00;51.00;99736.69;5029511;28;8824;-60
2023/07/11 07:02:32;;;;;;;;;7.40;7.40;;;;;25.08;51.10;99736.44;5031956;28;8967;-60
2023/07/11 07:05:00;;;;;;;;;7.80;7.80;;;;;25.18;51.23;99731.34;5032648;28;8831;-58
2023/07/11 07:07:29;;;;;;;;;7.20;6.40;;;;;25.27;50.18;99732.78;5029877;28;8920;-59
2023/07/11 07:09:57;;;;;;;;;9.00;9.00;;;;;25.36;50.40;99731.44;5014231;28;8814;-60
2023/07/11 07:12:25;;;;;;;;;5.00;5.00;;;;;25.43;50.42;99733.09;5033000;28;8840;-60
2023/07/11 07:14:53;;;;;;;;;5.80;5.60;;;;;25.52;50.38;99728.16;5032781;28;8852;-60
2023/07/11 07:17:21;;;;;;;;;6.40;6.00;;;;;25.62;49.54;99733.97;5032763;28;8848;-61
2023/07/11 07:19:49;;;;;;;;;6.00;5.40;;;;;25.69;50.27;99743.75;5019438;28;8919;-60
2023/07/11 07:22:17;;;;;;;;;6.00;6.00;;;;;25.74;49.61;99731.09;5032270;28;8838;-60
2023/07/11 07:24:45;;;;;;;;;6.00;5.00;;;;;25.81;49.84;99723.69;5032700;28;8893;-58
2023/07/11 07:27:13;;;;;;;;;6.00;5.80;;;;;25.93;49.16;99729.28;5032500;28;8828;-59
2023/07/11 07:29:55;;;;;;;;;6.00;5.60;;;;;26.02;49.45;99722.44;5032502;28;8916;-60
2023/07/11 07:32:23;;;;;;;;;7.00;6.60;;;;;26.10;48.68;99724.91;5033164;28;8840;-60
2023/07/11 07:34:51;;;;;;;;;6.40;6.00;;;;;26.18;48.58;99722.69;5033791;28;8832;-59
2023/07/11 07:37:19;;;;;;;;;6.80;6.80;;;;;26.27;48.33;99718.59;5033212;28;8919;-57
2023/07/11 07:39:47;;;;;;;;;6.20;6.20;;;;;26.38;48.17;99720.59;5032951;28;8832;-61
2023/07/11 07:42:16;;;;;;;;;8.00;6.60;;;;;26.47;48.31;99711.00;5033447;28;8928;-59
2023/07/11 07:44:44;;;;;;;;;1.00;1.00;;;;;26.62;47.91;99707.91;5033929;28;8840;-59
2023/07/11 07:47:12;;;;;;;;;7.00;7.00;;;;;26.72;47.92;99703.53;5032946;28;8840;-59
2023/07/11 07:49:40;;;;;;;;;6.80;6.40;;;;;26.78;47.94;99707.28;5033096;28;8858;-59
2023/07/11 07:52:22;;;;;;;;;7.00;6.00;;;;;26.86;47.69;99701.47;5033300;28;8839;-59
2023/07/11 07:54:50;;;;;;;;;6.00;6.00;;;;;26.94;47.39;99693.75;5033677;28;9501;-60
2023/07/11 07:57:18;;;;;;;;;6.00;6.00;;;;;27.05;47.03;99695.72;5031911;28;8844;-60
2023/07/11 07:59:46;;;;;;;;;6.80;6.00;;;;;27.17;46.74;99684.84;5032608;28;8851;-59
2023/07/11 08:02:14;;;;;;;;;6.00;6.00;;;;;27.27;47.16;99688.66;5032690;28;8962;-60
2023/07/11 08:04:42;;;;;;;;;4.40;4.40;;;;;27.40;46.70;99688.44;5024596;28;8848;-59
2023/07/11 08:07:10;;;;;;;;;5.20;5.20;;;;;27.51;46.81;99690.34;5014325;28;8848;-59
2023/07/11 08:09:38;;;;;;;;;6.60;6.00;;;;;27.59;46.08;99683.69;5031050;28;8832;-61
2023/07/11 08:12:06;;;;;;;;;5.20;4.40;;;;;27.61;46.43;99685.13;5022157;28;8994;-58
2023/07/11 08:14:34;;;;;;;;;4.00;4.00;;;;;27.63;45.96;99687.63;5013075;28;8914;-60
2023/07/11 08:17:02;;;;;;;;;4.40;3.80;;;;;27.69;46.11;99695.72;5012555;28;8846;-59
2023/07/11 08:19:30;;;;;;;;;7.00;6.60;;;;;27.71;46.03;99687.28;5020477;28;8820;-59
2023/07/11 08:21:58;;;;;;;;;1.20;1.20;;;;;27.72;45.93;99684.31;5031540;28;8851;-59
2023/07/11 08:24:27;;;;;;;;;6.00;5.60;;;;;27.78;45.74;99677.88;5032027;28;8840;-59
2023/07/11 08:26:55;;;;;;;;;3.80;3.80;;;;;27.86;44.96;99685.72;5032406;28;8828;-60
2023/07/11 08:29:23;;;;;;;;;5.20;4.00;;;;;27.91;44.87;99671.34;5030524;28;8945;-58
2023/07/11 08:31:58;;;;;;;;;4.80;4.80;;;;;28.02;45.28;99668.59;5030636;28;8837;-57
2023/07/11 08:34:26;;;;;;;;;5.80;5.80;;;;;28.17;44.58;99660.69;5022358;28;8832;-61
2023/07/11 08:36:55;;;;;;;;;5.20;4.40;;;;;28.33;44.23;99667.31;5030317;28;8897;-58
2023/07/11 08:39:24;;;;;;;;;6.00;6.00;;;;;28.44;44.23;99664.56;5037398;28;8828;-57
2023/07/11 08:41:55;;;;;;;;;5.40;5.20;;;;;28.55;44.02;99663.72;5037460;28;8906;-59
2023/07/11 08:44:25;;;;;;;;;1.00;1.00;;;;;28.63;44.28;99666.06;5036993;28;8887;-59
2023/07/11 08:46:57;;;;;;;;;4.00;4.00;;;;;28.54;43.85;99661.22;5037114;28;8859;-58
2023/07/11 08:49:27;;;;;;;;;3.00;3.00;;;;;28.31;44.17;99661.25;5037101;28;8990;-58
2023/07/11 08:51:56;;;;;;;;;3.40;3.40;;;;;28.09;44.36;99658.34;5037869;28;8847;-59
2023/07/11 08:54:28;;;;;;;;;6.00;5.40;;;;;28.11;44.48;99667.13;5037524;28;8848;-59
2023/07/11 08:56:58;;;;;;;;;3.00;3.00;;;;;28.27;43.97;99655.44;5011512;28;8850;-58
2023/07/11 08:59:26;;;;;;;;;4.00;3.00;;;;;28.46;44.16;99650.63;5011455;28;8849;-60
2023/07/11 09:01:54;;;;;;;;;5.20;5.00;;;;;28.60;43.62;99652.81;5011790;28;8875;-58
2023/07/11 09:04:22;;;;;;;;;4.40;4.40;;;;;28.76;43.68;99652.03;5029938;28;8827;-58
2023/07/11 09:06:50;;;;;;;;;4.00;3.00;;;;;28.84;43.59;99642.59;5031485;28;8854;-59
2023/07/11 09:09:19;;;;;;;;;4.60;4.60;;;;;28.84;43.14;99646.16;5030581;28;8820;-58
2023/07/11 09:11:47;;;;;;;;;3.60;3.60;;;;;28.90;43.50;99639.69;5014962;28;8846;-59
2023/07/11 09:14:15;;;;;;;;;5.00;4.40;;;;;28.96;43.08;99643.41;5017160;28;8822;-58
2023/07/11 09:16:43;;;;;;;;;4.20;3.80;;;;;28.99;43.17;99654.69;5034549;28;8862;-60
2023/07/11 09:19:11;;;;;;;;;4.80;4.80;;;;;29.04;42.52;99641.06;5022492;28;8815;-58
2023/07/11 09:21:39;;;;;;;;;4.20;4.20;;;;;29.14;42.35;99643.16;5034943;28;9525;-59
2023/07/11 09:24:11;;;;;;;;;4.00;3.00;;;;;29.25;42.76;99634.84;5035061;28;8848;-58
2023/07/11 09:26:49;;;;;;;;;4.00;4.00;;;;;29.40;42.08;99640.56;5034749;28;8893;-58
2023/07/11 09:29:17;;;;;;;;;4.00;3.40;;;;;29.50;41.73;99631.69;5035329;28;8928;-58
2023/07/11 09:31:45;;;;;;;;;3.00;3.00;;;;;29.55;41.63;99626.28;5034823;28;8904;-59
2023/07/11 09:34:13;;;;;;;;;4.40;4.00;;;;;29.57;41.09;99630.44;5035493;28;9013;-58
2023/07/11 09:36:41;;;;;;;;;4.00;3.80;;;;;29.67;41.46;99629.75;5034687;28;8847;-58
2023/07/11 09:39:09;;;;;;;;;3.00;3.00;;;;;29.80;41.34;99624.72;5035147;28;8943;-58
2023/07/11 09:41:37;;;;;;;;;3.60;3.00;;;;;29.86;40.99;99623.72;5034488;28;8862;-58
2023/07/11 09:44:17;;;;;;;;;6.20;5.00;;;;;29.94;40.21;99620.53;5035231;28;8839;-59
2023/07/11 09:46:45;;;;;;;;;3.40;3.40;;;;;29.98;40.61;99627.19;5035423;28;9482;-59
2023/07/11 09:49:13;;;;;;;;;3.60;3.60;;;;;30.09;40.36;99618.00;5034927;28;8824;-59
2023/07/11 09:51:41;;;;;;;;;4.00;3.40;;;;;30.11;40.11;99615.03;5034564;28;8866;-58
2023/07/11 09:54:10;;;;;;;;;3.80;3.80;;;;;30.21;40.00;99620.63;5034887;28;8925;-59
2023/07/11 09:56:38;;;;;;;;;4.20;4.20;;;;;30.18;40.44;99616.47;5035042;28;8847;-60
2023/07/11 09:59:06;;;;;;;;;3.80;3.80;;;;;30.06;40.25;99613.00;5034363;28;8843;-58
2023/07/11 10:01:36;;;;;;;;;4.20;4.00;;;;;29.91;40.17;99622.97;5034854;28;8836;-58
2023/07/11 10:04:04;;;;;;;;;3.00;3.00;;;;;29.73;40.43;99613.09;5034604;28;8887;-58
2023/07/11 10:06:33;;;;;;;;;7.00;7.00;;;;;29.94;40.08;99617.78;5029970;28;8818;-59
2023/07/11 10:09:05;;;;;;;;;3.00;3.00;;;;;30.25;39.57;99608.06;5017387;28;8798;-58
2023/07/11 10:11:33;;;;;;;;;4.20;4.20;;;;;30.57;39.12;99608.97;5013945;28;9515;-58
2023/07/11 10:14:02;;;;;;;;;4.00;4.00;;;;;30.74;38.58;99605.06;5014134;28;8830;-58
2023/07/11 10:16:30;;;;;;;;;4.00;3.00;;;;;30.98;38.58;99606.38;5014515;28;8834;-60
2023/07/11 10:18:58;;;;;;;;;4.00;4.00;;;;;30.89;38.32;99605.19;5014668;28;8834;-58
2023/07/11 10:21:27;;;;;;;;;3.00;3.00;;;;;30.71;39.15;99600.06;5013789;28;8870;-58
2023/07/11 10:24:07;;;;;;;;;4.00;4.00;;;;;31.05;38.56;99604.25;5014663;28;9495;-58
2023/07/11 10:26:35;;;;;;;;;2.80;2.80;;;;;31.16;38.08;99597.75;5014999;28;8866;-59
2023/07/11 10:29:07;;;;;;;;;2.00;2.00;;;;;31.32;38.14;99599.50;5015294;28;8826;-61
2023/07/11 10:31:50;;;;;;;;;2.60;2.00;;;;;31.78;37.58;99596.00;5014374;28;8858;-59
2023/07/11 10:34:19;;;;;;;;;4.60;4.00;;;;;32.04;37.04;99587.59;5013617;28;8834;-59
2023/07/11 10:36:47;;;;;;;;;3.40;3.40;;;;;32.40;37.01;99586.63;5013437;28;8846;-58
2023/07/11 10:39:15;;;;;;;;;4.20;4.20;;;;;32.77;36.17;99587.28;5015033;28;8814;-60
2023/07/11 10:41:43;;;;;;;;;6.80;6.00;;;;;33.19;36.24;99593.41;5014122;28;8838;-59
2023/07/11 10:44:12;;;;;;;;;5.00;4.80;;;;;33.52;36.07;99589.25;5028073;28;8921;-59
2023/07/11 10:46:42;;;;;;;;;5.80;5.80;;;;;33.70;34.87;99588.66;5033529;28;8836;-59
2023/07/11 10:49:14;;;;;;;;;4.80;4.80;;;;;33.90;35.07;99578.38;5014900;28;8830;-58
2023/07/11 10:51:43;;;;;;;;;3.20;3.20;;;;;34.33;34.82;99572.16;5013604;28;8834;-59
2023/07/11 10:54:11;;;;;;;;;2.00;2.00;;;;;34.95;34.53;99574.25;5013846;28;8870;-59
2023/07/11 10:56:39;;;;;;;;;5.20;5.00;;;;;35.50;33.72;99563.53;5018915;28;8824;-58
2023/07/11 10:59:07;;;;;;;;;6.00;6.00;;;;;35.73;32.90;99565.53;5033782;28;9478;-58
2023/07/11 11:01:36;;;;;;;;;5.60;5.00;;;;;35.81;33.29;99562.09;5032467;28;8917;-58
2023/07/11 11:04:04;;;;;;;;;3.20;3.00;;;;;35.79;33.17;99552.41;5033341;28;8845;-59
2023/07/11 11:06:32;;;;;;;;;4.40;4.40;;;;;35.91;33.40;99553.66;5020779;28;8857;-59
2023/07/11 11:09:03;;;;;;;;;5.00;4.40;;;;;36.08;33.01;99540.94;5015824;28;8824;-59
2023/07/11 11:11:31;;;;;;;;;6.00;6.00;;;;;36.31;33.52;99539.28;5031000;28;8950;-59
2023/07/11 11:13:59;;;;;;;;;5.60;5.00;;;;;36.65;33.07;99529.63;5032273;28;8847;-59
2023/07/11 11:16:27;;;;;;;;;4.80;4.20;;;;;37.09;32.25;99521.69;5031574;28;8832;-59
2023/07/11 11:18:56;;;;;;;;;7.00;4.40;;;;;37.41;32.48;99521.63;5029598;28;8831;-59
2023/07/11 11:21:25;;;;;;;;;5.80;5.40;;;;;37.35;31.86;99525.66;5032143;28;8990;-58
2023/07/11 11:24:02;;;;;;;;;4.40;3.80;;;;;37.14;32.67;99512.44;5032555;28;8987;-59
2023/07/11 11:26:31;;;;;;;;;5.40;5.40;;;;;36.76;32.71;99520.00;5032940;28;8844;-59
2023/07/11 11:28:59;;;;;;;;;5.40;4.60;;;;;36.57;32.67;99518.34;5032705;28;8840;-59
2023/07/11 11:31:27;;;;;;;;;6.00;5.20;;;;;36.74;32.71;99511.16;5031030;28;8836;-59
2023/07/11 11:33:55;;;;;;;;;5.20;4.40;;;;;36.98;32.46;99506.31;5033048;28;9563;-60
2023/07/11 11:36:23;;;;;;;;;5.00;4.60;;;;;37.14;31.71;99509.66;5032517;28;8820;-59